sensor_id;sensor_type;location;lat;lon;timestamp;pressure;altitude;pressure_sealevel;temperature;humidity
36932;BME280;22847;42.654;23.370;2022-07-09T00:01:17;94602.63;;;20.76;77.23
36932;BME280;22847;42.654;23.370;2022-07-09T00:03:42;94601.19;;;20.93;77.77
36932;BME280;22847;42.654;23.370;2022-07-09T00:06:08;94496.59;;;20.25;77.50
36932;BME280;22847;42.654;23.370;2022-07-09T00:08:33;94597.91;;;20.85;77.96
36932;BME280;22847;42.654;23.370;2022-07-09T00:10:58;94571.94;;;20.62;78.76
36932;BME280;22847;42.654;23.370;2022-07-09T00:13:24;94571.06;;;20.75;78.15
36932;BME280;22847;42.654;23.370;2022-07-09T00:15:50;94405.50;;;19.75;77.84
36932;BME280;22847;42.654;23.370;2022-07-09T00:18:15;94587.94;;;20.93;78.01
36932;BME280;22847;42.654;23.370;2022-07-09T00:20:41;94582.50;;;20.69;79.11
36932;BME280;22847;42.654;23.370;2022-07-09T00:23:06;94545.69;;;20.41;79.04
36932;BME280;22847;42.654;23.370;2022-07-09T00:25:32;94382.97;;;19.53;78.72
36932;BME280;22847;42.654;23.370;2022-07-09T00:27:57;94398.41;;;19.63;79.31
36932;BME280;22847;42.654;23.370;2022-07-09T00:30:23;94573.72;;;20.75;78.90
36932;BME280;22847;42.654;23.370;2022-07-09T00:32:48;94584.50;;;20.80;78.40
36932;BME280;22847;42.654;23.370;2022-07-09T00:35:14;94562.34;;;20.61;78.72
36932;BME280;22847;42.654;23.370;2022-07-09T00:37:39;94522.88;;;20.33;79.24
36932;BME280;22847;42.654;23.370;2022-07-09T00:40:05;94581.34;;;20.32;80.26
36932;BME280;22847;42.654;23.370;2022-07-09T00:42:31;94514.19;;;19.93;80.63
36932;BME280;22847;42.654;23.370;2022-07-09T00:44:57;94558.72;;;20.29;80.20
36932;BME280;22847;42.654;23.370;2022-07-09T00:47:22;94596.41;;;20.51;79.38
36932;BME280;22847;42.654;23.370;2022-07-09T00:49:48;94585.00;;;20.31;80.22
36932;BME280;22847;42.654;23.370;2022-07-09T00:52:14;94566.66;;;20.23;80.49
36932;BME280;22847;42.654;23.370;2022-07-09T00:54:41;94374.31;;;18.33;83.88
36932;BME280;22847;42.654;23.370;2022-07-09T00:57:08;94565.66;;;19.58;84.02
36932;BME280;22847;42.654;23.370;2022-07-09T00:59:35;94539.00;;;19.66;83.29
36932;BME280;22847;42.654;23.370;2022-07-09T01:02:02;94367.69;;;18.63;82.84
36932;BME280;22847;42.654;23.370;2022-07-09T01:04:27;94563.84;;;19.65;83.53
36932;BME280;22847;42.654;23.370;2022-07-09T01:06:53;94507.47;;;19.58;82.23
36932;BME280;22847;42.654;23.370;2022-07-09T01:09:18;94524.16;;;19.58;82.42
36932;BME280;22847;42.654;23.370;2022-07-09T01:11:44;94373.34;;;18.60;82.86
36932;BME280;22847;42.654;23.370;2022-07-09T01:14:09;94454.72;;;18.91;84.15
36932;BME280;22847;42.654;23.370;2022-07-09T01:16:36;94560.38;;;19.58;83.56
36932;BME280;22847;42.654;23.370;2022-07-09T01:19:03;94524.31;;;19.37;82.95
36932;BME280;22847;42.654;23.370;2022-07-09T01:21:29;94553.66;;;19.69;83.31
36932;BME280;22847;42.654;23.370;2022-07-09T01:23:54;94542.69;;;19.72;83.24
36932;BME280;22847;42.654;23.370;2022-07-09T01:26:20;94542.69;;;19.85;82.16
36932;BME280;22847;42.654;23.370;2022-07-09T01:28:46;94506.25;;;19.67;81.78
36932;BME280;22847;42.654;23.370;2022-07-09T01:31:12;94526.59;;;19.67;81.41
36932;BME280;22847;42.654;23.370;2022-07-09T01:33:38;94450.66;;;19.08;82.62
36932;BME280;22847;42.654;23.370;2022-07-09T01:36:05;94365.03;;;18.69;82.07
36932;BME280;22847;42.654;23.370;2022-07-09T01:38:31;94538.81;;;19.74;82.22
36932;BME280;22847;42.654;23.370;2022-07-09T01:40:56;94530.47;;;19.71;82.21
36932;BME280;22847;42.654;23.370;2022-07-09T01:43:22;94486.31;;;19.45;81.85
36932;BME280;22847;42.654;23.370;2022-07-09T01:45:48;94530.28;;;19.72;82.03
36932;BME280;22847;42.654;23.370;2022-07-09T01:48:13;94540.84;;;19.85;81.87
36932;BME280;22847;42.654;23.370;2022-07-09T01:50:39;94527.22;;;19.62;82.39
36932;BME280;22847;42.654;23.370;2022-07-09T01:53:04;94406.53;;;19.02;81.88
36932;BME280;22847;42.654;23.370;2022-07-09T01:55:30;94421.81;;;19.00;81.61
36932;BME280;22847;42.654;23.370;2022-07-09T01:57:55;94437.88;;;19.18;81.32
36932;BME280;22847;42.654;23.370;2022-07-09T02:00:21;94445.34;;;18.88;83.29
36932;BME280;22847;42.654;23.370;2022-07-09T02:02:46;94337.72;;;18.29;82.84
36932;BME280;22847;42.654;23.370;2022-07-09T02:05:12;94542.25;;;19.55;83.23
36932;BME280;22847;42.654;23.370;2022-07-09T02:07:38;94539.00;;;19.46;82.82
36932;BME280;22847;42.654;23.370;2022-07-09T02:10:04;94561.78;;;19.60;81.69
36932;BME280;22847;42.654;23.370;2022-07-09T02:12:30;94542.66;;;19.91;80.83
36932;BME280;22847;42.654;23.370;2022-07-09T02:14:55;94353.66;;;18.62;81.13
36932;BME280;22847;42.654;23.370;2022-07-09T02:17:21;94551.63;;;19.71;81.37
36932;BME280;22847;42.654;23.370;2022-07-09T02:19:46;94577.88;;;19.79;80.80
36932;BME280;22847;42.654;23.370;2022-07-09T02:22:12;94511.28;;;19.42;81.30
36932;BME280;22847;42.654;23.370;2022-07-09T02:24:37;94549.19;;;19.76;80.70
36932;BME280;22847;42.654;23.370;2022-07-09T02:27:03;94352.78;;;18.36;81.46
36932;BME280;22847;42.654;23.370;2022-07-09T02:29:28;94361.09;;;18.39;81.54
36932;BME280;22847;42.654;23.370;2022-07-09T02:31:54;94517.00;;;19.46;80.81
36932;BME280;22847;42.654;23.370;2022-07-09T02:34:21;94562.41;;;19.82;80.62
36932;BME280;22847;42.654;23.370;2022-07-09T02:36:46;94543.91;;;19.63;80.96
36932;BME280;22847;42.654;23.370;2022-07-09T02:39:13;94540.16;;;19.31;82.20
36932;BME280;22847;42.654;23.370;2022-07-09T02:41:38;94558.94;;;19.49;81.50
36932;BME280;22847;42.654;23.370;2022-07-09T02:44:04;94472.63;;;19.08;80.86
36932;BME280;22847;42.654;23.370;2022-07-09T02:46:29;94307.63;;;18.11;80.64
36932;BME280;22847;42.654;23.370;2022-07-09T02:48:55;94552.44;;;19.71;80.08
36932;BME280;22847;42.654;23.370;2022-07-09T02:51:20;94524.97;;;19.52;79.63
36932;BME280;22847;42.654;23.370;2022-07-09T02:53:46;94537.75;;;19.42;80.29
36932;BME280;22847;42.654;23.370;2022-07-09T02:56:11;94537.75;;;19.42;80.59
36932;BME280;22847;42.654;23.370;2022-07-09T02:58:37;94341.63;;;18.40;79.70
36932;BME280;22847;42.654;23.370;2022-07-09T03:01:02;94390.44;;;18.64;78.40
36932;BME280;22847;42.654;23.370;2022-07-09T03:03:31;94384.91;;;18.52;79.33
36932;BME280;22847;42.654;23.370;2022-07-09T03:05:56;94496.63;;;19.33;78.53
36932;BME280;22847;42.654;23.370;2022-07-09T03:08:22;94548.78;;;19.52;78.88
36932;BME280;22847;42.654;23.370;2022-07-09T03:10:48;94580.09;;;19.49;79.49
36932;BME280;22847;42.654;23.370;2022-07-09T03:13:14;94588.06;;;19.75;79.73
36932;BME280;22847;42.654;23.370;2022-07-09T03:15:40;94358.69;;;18.44;78.90
36932;BME280;22847;42.654;23.370;2022-07-09T03:18:05;94444.56;;;18.94;79.43
36932;BME280;22847;42.654;23.370;2022-07-09T03:20:34;94085.19;;;16.84;79.37
36932;BME280;22847;42.654;23.370;2022-07-09T03:23:00;94576.84;;;19.47;81.06
36932;BME280;22847;42.654;23.370;2022-07-09T03:25:26;94565.59;;;19.38;80.81
36932;BME280;22847;42.654;23.370;2022-07-09T03:27:52;94424.41;;;18.87;79.22
36932;BME280;22847;42.654;23.370;2022-07-09T03:30:17;94385.34;;;18.69;79.82
36932;BME280;22847;42.654;23.370;2022-07-09T03:32:44;94229.03;;;17.73;79.00
36932;BME280;22847;42.654;23.370;2022-07-09T03:35:09;94570.13;;;19.64;80.33
36932;BME280;22847;42.654;23.370;2022-07-09T03:37:35;94576.66;;;19.81;78.92
36932;BME280;22847;42.654;23.370;2022-07-09T03:40:01;94546.25;;;19.18;80.42
36932;BME280;22847;42.654;23.370;2022-07-09T03:42:27;94566.66;;;19.50;80.79
36932;BME280;22847;42.654;23.370;2022-07-09T03:44:53;94574.00;;;19.68;79.84
36932;BME280;22847;42.654;23.370;2022-07-09T03:47:18;94224.00;;;17.44;80.27
36932;BME280;22847;42.654;23.370;2022-07-09T03:49:43;94513.66;;;18.98;81.63
36932;BME280;22847;42.654;23.370;2022-07-09T03:52:09;94569.72;;;19.60;80.82
36932;BME280;22847;42.654;23.370;2022-07-09T03:54:34;94584.22;;;19.84;79.31
36932;BME280;22847;42.654;23.370;2022-07-09T03:57:00;94519.38;;;19.08;81.38
36932;BME280;22847;42.654;23.370;2022-07-09T03:59:25;94433.53;;;18.71;80.65
36932;BME280;22847;42.654;23.370;2022-07-09T04:01:51;94564.66;;;19.66;80.71
36932;BME280;22847;42.654;23.370;2022-07-09T04:04:16;94601.47;;;19.60;81.67
36932;BME280;22847;42.654;23.370;2022-07-09T04:06:41;94377.38;;;18.49;81.15
36932;BME280;22847;42.654;23.370;2022-07-09T04:09:07;94573.81;;;19.89;80.42
36932;BME280;22847;42.654;23.370;2022-07-09T04:11:33;94392.28;;;18.63;80.71
36932;BME280;22847;42.654;23.370;2022-07-09T04:13:59;94535.22;;;19.01;82.30
36932;BME280;22847;42.654;23.370;2022-07-09T04:16:25;94580.47;;;19.46;82.47
36932;BME280;22847;42.654;23.370;2022-07-09T04:18:50;94585.41;;;19.49;81.77
36932;BME280;22847;42.654;23.370;2022-07-09T04:21:16;94591.72;;;19.74;81.11
36932;BME280;22847;42.654;23.370;2022-07-09T04:23:42;94566.47;;;19.52;81.12
36932;BME280;22847;42.654;23.370;2022-07-09T04:26:08;94594.56;;;19.86;80.48
36932;BME280;22847;42.654;23.370;2022-07-09T04:28:35;94594.59;;;19.79;80.47
36932;BME280;22847;42.654;23.370;2022-07-09T04:31:01;94599.06;;;19.85;80.37
36932;BME280;22847;42.654;23.370;2022-07-09T04:33:27;94567.94;;;19.68;79.96
36932;BME280;22847;42.654;23.370;2022-07-09T04:35:52;94609.19;;;19.49;82.55
36932;BME280;22847;42.654;23.370;2022-07-09T04:38:17;94549.84;;;18.91;84.00
36932;BME280;22847;42.654;23.370;2022-07-09T04:40:43;94581.41;;;19.18;84.19
36932;BME280;22847;42.654;23.370;2022-07-09T04:43:08;94462.41;;;18.32;84.90
36932;BME280;22847;42.654;23.370;2022-07-09T04:45:34;94418.28;;;18.12;83.82
36932;BME280;22847;42.654;23.370;2022-07-09T04:48:00;94592.44;;;19.42;82.92
36932;BME280;22847;42.654;23.370;2022-07-09T04:50:26;94589.81;;;19.42;83.11
36932;BME280;22847;42.654;23.370;2022-07-09T04:52:52;94608.00;;;19.71;82.12
36932;BME280;22847;42.654;23.370;2022-07-09T04:55:18;94381.44;;;18.52;80.95
36932;BME280;22847;42.654;23.370;2022-07-09T04:57:44;94582.38;;;19.91;80.90
36932;BME280;22847;42.654;23.370;2022-07-09T05:00:10;94582.13;;;19.60;81.40
36932;BME280;22847;42.654;23.370;2022-07-09T05:02:37;94582.97;;;19.87;80.58
36932;BME280;22847;42.654;23.370;2022-07-09T05:05:03;94568.53;;;19.70;81.21
36932;BME280;22847;42.654;23.370;2022-07-09T05:07:31;94587.47;;;19.80;81.03
36932;BME280;22847;42.654;23.370;2022-07-09T05:09:56;94597.22;;;19.92;80.09
36932;BME280;22847;42.654;23.370;2022-07-09T05:12:22;94566.69;;;19.83;80.07
36932;BME280;22847;42.654;23.370;2022-07-09T05:14:47;94443.09;;;18.85;81.29
36932;BME280;22847;42.654;23.370;2022-07-09T05:17:13;94606.97;;;19.66;80.90
36932;BME280;22847;42.654;23.370;2022-07-09T05:19:38;94601.31;;;20.01;80.43
36932;BME280;22847;42.654;23.370;2022-07-09T05:22:04;94599.63;;;19.54;82.15
36932;BME280;22847;42.654;23.370;2022-07-09T05:24:29;94601.38;;;19.21;83.24
36932;BME280;22847;42.654;23.370;2022-07-09T05:26:55;94496.72;;;18.79;81.90
36932;BME280;22847;42.654;23.370;2022-07-09T05:29:21;94288.91;;;17.86;80.82
36932;BME280;22847;42.654;23.370;2022-07-09T05:31:48;94414.78;;;18.53;81.35
36932;BME280;22847;42.654;23.370;2022-07-09T05:34:15;94431.09;;;18.83;80.57
36932;BME280;22847;42.654;23.370;2022-07-09T05:36:40;94602.94;;;19.89;80.66
36932;BME280;22847;42.654;23.370;2022-07-09T05:39:06;94638.34;;;19.95;80.56
36932;BME280;22847;42.654;23.370;2022-07-09T05:41:32;94391.66;;;18.55;80.00
36932;BME280;22847;42.654;23.370;2022-07-09T05:43:58;94616.56;;;19.86;81.07
36932;BME280;22847;42.654;23.370;2022-07-09T05:46:23;94590.28;;;19.78;80.82
36932;BME280;22847;42.654;23.370;2022-07-09T05:48:49;94580.31;;;19.74;79.83
36932;BME280;22847;42.654;23.370;2022-07-09T05:51:14;94605.16;;;19.86;80.66
36932;BME280;22847;42.654;23.370;2022-07-09T05:53:39;94627.78;;;20.01;79.58
36932;BME280;22847;42.654;23.370;2022-07-09T05:56:05;94626.56;;;19.97;79.54
36932;BME280;22847;42.654;23.370;2022-07-09T05:58:31;94458.78;;;18.93;79.50
36932;BME280;22847;42.654;23.370;2022-07-09T06:00:56;94620.84;;;19.94;80.61
36932;BME280;22847;42.654;23.370;2022-07-09T06:03:22;94624.50;;;19.67;80.74
36932;BME280;22847;42.654;23.370;2022-07-09T06:05:47;94651.34;;;19.70;80.22
36932;BME280;22847;42.654;23.370;2022-07-09T06:08:13;94492.72;;;18.96;80.16
36932;BME280;22847;42.654;23.370;2022-07-09T06:10:38;94610.22;;;19.48;81.87
36932;BME280;22847;42.654;23.370;2022-07-09T06:13:04;94560.84;;;19.14;82.24
36932;BME280;22847;42.654;23.370;2022-07-09T06:15:29;94589.25;;;19.46;80.68
36932;BME280;22847;42.654;23.370;2022-07-09T06:17:55;94472.22;;;18.51;81.87
36932;BME280;22847;42.654;23.370;2022-07-09T06:20:20;94586.91;;;19.17;81.34
36932;BME280;22847;42.654;23.370;2022-07-09T06:22:46;94589.00;;;19.41;80.82
36932;BME280;22847;42.654;23.370;2022-07-09T06:25:11;94430.56;;;18.46;80.88
36932;BME280;22847;42.654;23.370;2022-07-09T06:27:37;94612.84;;;19.48;80.69
36932;BME280;22847;42.654;23.370;2022-07-09T06:30:03;94637.94;;;19.78;80.16
36932;BME280;22847;42.654;23.370;2022-07-09T06:32:28;94610.00;;;19.49;81.48
36932;BME280;22847;42.654;23.370;2022-07-09T06:34:54;94469.09;;;18.75;81.31
36932;BME280;22847;42.654;23.370;2022-07-09T06:37:20;94648.53;;;19.98;79.78
36932;BME280;22847;42.654;23.370;2022-07-09T06:39:45;94595.06;;;19.29;79.74
36932;BME280;22847;42.654;23.370;2022-07-09T06:42:12;94649.53;;;19.90;80.45
36932;BME280;22847;42.654;23.370;2022-07-09T06:44:38;94574.22;;;19.73;79.51
36932;BME280;22847;42.654;23.370;2022-07-09T06:47:04;94642.22;;;20.19;79.35
36932;BME280;22847;42.654;23.370;2022-07-09T06:49:30;94564.66;;;19.72;79.17
36932;BME280;22847;42.654;23.370;2022-07-09T06:51:56;94463.06;;;19.14;80.16
36932;BME280;22847;42.654;23.370;2022-07-09T06:54:22;94646.75;;;20.38;79.01
36932;BME280;22847;42.654;23.370;2022-07-09T06:56:47;94495.06;;;19.58;78.58
36932;BME280;22847;42.654;23.370;2022-07-09T06:59:13;94640.41;;;20.45;78.37
36932;BME280;22847;42.654;23.370;2022-07-09T07:01:39;94638.81;;;20.38;79.08
36932;BME280;22847;42.654;23.370;2022-07-09T07:04:04;94629.00;;;20.32;78.64
36932;BME280;22847;42.654;23.370;2022-07-09T07:06:30;94620.25;;;20.12;79.45
36932;BME280;22847;42.654;23.370;2022-07-09T07:08:55;94624.31;;;20.47;78.01
36932;BME280;22847;42.654;23.370;2022-07-09T07:11:21;94629.03;;;20.38;78.07
36932;BME280;22847;42.654;23.370;2022-07-09T07:13:46;94649.75;;;20.68;78.11
36932;BME280;22847;42.654;23.370;2022-07-09T07:16:12;94599.28;;;20.30;78.45
36932;BME280;22847;42.654;23.370;2022-07-09T07:18:37;94434.09;;;18.60;81.66
36932;BME280;22847;42.654;23.370;2022-07-09T07:21:03;94607.03;;;19.98;81.01
36932;BME280;22847;42.654;23.370;2022-07-09T07:23:29;94462.06;;;19.22;79.63
36932;BME280;22847;42.654;23.370;2022-07-09T07:25:57;94500.34;;;19.65;79.43
36932;BME280;22847;42.654;23.370;2022-07-09T07:28:23;94670.56;;;20.12;81.21
36932;BME280;22847;42.654;23.370;2022-07-09T07:30:48;94650.59;;;20.16;79.97
36932;BME280;22847;42.654;23.370;2022-07-09T07:33:14;94527.59;;;19.46;79.36
36932;BME280;22847;42.654;23.370;2022-07-09T07:35:39;94611.06;;;20.40;78.86
36932;BME280;22847;42.654;23.370;2022-07-09T07:38:05;94614.06;;;20.77;77.60
36932;BME280;22847;42.654;23.370;2022-07-09T07:40:30;94444.56;;;19.86;76.31
36932;BME280;22847;42.654;23.370;2022-07-09T07:42:56;94456.50;;;20.22;75.37
36932;BME280;22847;42.654;23.370;2022-07-09T07:45:21;94647.69;;;21.47;75.52
36932;BME280;22847;42.654;23.370;2022-07-09T07:47:47;94458.09;;;20.23;74.15
36932;BME280;22847;42.654;23.370;2022-07-09T07:50:12;94607.22;;;21.14;74.31
36932;BME280;22847;42.654;23.370;2022-07-09T07:52:38;94487.84;;;20.18;75.24
36932;BME280;22847;42.654;23.370;2022-07-09T07:55:04;94553.16;;;20.70;75.52
36932;BME280;22847;42.654;23.370;2022-07-09T07:57:29;94640.06;;;21.13;76.17
36932;BME280;22847;42.654;23.370;2022-07-09T07:59:55;94652.47;;;21.12;76.82
36932;BME280;22847;42.654;23.370;2022-07-09T08:02:20;94450.53;;;20.26;74.23
36932;BME280;22847;42.654;23.370;2022-07-09T08:04:46;94601.06;;;21.26;74.28
36932;BME280;22847;42.654;23.370;2022-07-09T08:07:12;94606.31;;;21.71;73.49
36932;BME280;22847;42.654;23.370;2022-07-09T08:09:37;94663.25;;;21.75;72.90
36932;BME280;22847;42.654;23.370;2022-07-09T08:12:03;94688.78;;;21.76;72.31
36932;BME280;22847;42.654;23.370;2022-07-09T08:14:29;94563.38;;;21.49;71.87
36932;BME280;22847;42.654;23.370;2022-07-09T08:16:54;94621.28;;;21.65;71.25
36932;BME280;22847;42.654;23.370;2022-07-09T08:19:19;94641.53;;;21.85;72.01
36932;BME280;22847;42.654;23.370;2022-07-09T08:21:45;94626.97;;;21.62;71.70
36932;BME280;22847;42.654;23.370;2022-07-09T08:24:10;94431.78;;;20.47;72.32
36932;BME280;22847;42.654;23.370;2022-07-09T08:26:36;94658.25;;;21.92;72.03
36932;BME280;22847;42.654;23.370;2022-07-09T08:29:01;94604.19;;;21.48;72.77
36932;BME280;22847;42.654;23.370;2022-07-09T08:31:27;94605.72;;;21.31;73.17
36932;BME280;22847;42.654;23.370;2022-07-09T08:33:52;94630.16;;;21.77;72.58
36932;BME280;22847;42.654;23.370;2022-07-09T08:36:18;94619.28;;;21.54;71.70
36932;BME280;22847;42.654;23.370;2022-07-09T08:38:44;94641.34;;;21.48;72.69
36932;BME280;22847;42.654;23.370;2022-07-09T08:41:10;94584.00;;;21.16;72.63
36932;BME280;22847;42.654;23.370;2022-07-09T08:43:38;94641.81;;;21.39;73.53
36932;BME280;22847;42.654;23.370;2022-07-09T08:46:05;94628.25;;;21.53;72.23
36932;BME280;22847;42.654;23.370;2022-07-09T08:48:35;94642.91;;;21.62;71.58
36932;BME280;22847;42.654;23.370;2022-07-09T08:51:02;94679.78;;;21.32;71.65
36932;BME280;22847;42.654;23.370;2022-07-09T08:53:28;94467.69;;;20.24;72.00
36932;BME280;22847;42.654;23.370;2022-07-09T08:55:55;94650.91;;;21.56;71.45
36932;BME280;22847;42.654;23.370;2022-07-09T08:58:21;94659.00;;;21.67;70.73
36932;BME280;22847;42.654;23.370;2022-07-09T09:00:48;94623.38;;;21.50;71.17
36932;BME280;22847;42.654;23.370;2022-07-09T09:03:14;94681.25;;;21.73;71.51
36932;BME280;22847;42.654;23.370;2022-07-09T09:05:39;94628.31;;;21.47;71.65
36932;BME280;22847;42.654;23.370;2022-07-09T09:08:20;94454.59;;;20.48;71.02
36932;BME280;22847;42.654;23.370;2022-07-09T09:10:49;94607.97;;;21.34;72.18
36932;BME280;22847;42.654;23.370;2022-07-09T09:13:15;94581.50;;;21.21;71.81
36932;BME280;22847;42.654;23.370;2022-07-09T09:15:42;94438.56;;;20.24;71.91
36932;BME280;22847;42.654;23.370;2022-07-09T09:18:09;94644.88;;;21.42;72.56
36932;BME280;22847;42.654;23.370;2022-07-09T09:20:34;94499.34;;;20.63;72.63
36932;BME280;22847;42.654;23.370;2022-07-09T09:23:00;94656.50;;;21.41;73.44
36932;BME280;22847;42.654;23.370;2022-07-09T09:25:28;94481.88;;;20.49;73.07
36932;BME280;22847;42.654;23.370;2022-07-09T09:27:58;94641.97;;;21.50;74.09
36932;BME280;22847;42.654;23.370;2022-07-09T09:30:25;94636.78;;;21.62;72.90
36932;BME280;22847;42.654;23.370;2022-07-09T09:32:59;94648.59;;;21.66;72.80
36932;BME280;22847;42.654;23.370;2022-07-09T09:35:29;94650.16;;;21.80;73.21
36932;BME280;22847;42.654;23.370;2022-07-09T09:37:55;94628.06;;;21.55;73.32
36932;BME280;22847;42.654;23.370;2022-07-09T09:40:21;94467.78;;;20.62;71.67
36932;BME280;22847;42.654;23.370;2022-07-09T09:42:48;94449.25;;;20.62;72.46
36932;BME280;22847;42.654;23.370;2022-07-09T09:45:14;94495.28;;;21.05;72.89
36932;BME280;22847;42.654;23.370;2022-07-09T09:47:50;94461.19;;;21.15;71.57
36932;BME280;22847;42.654;23.370;2022-07-09T09:50:20;94615.28;;;22.08;70.40
36932;BME280;22847;42.654;23.370;2022-07-09T09:52:47;94483.41;;;21.08;71.63
36932;BME280;22847;42.654;23.370;2022-07-09T09:55:14;94645.47;;;22.38;71.50
36932;BME280;22847;42.654;23.370;2022-07-09T09:57:40;94634.53;;;22.28;69.93
36932;BME280;22847;42.654;23.370;2022-07-09T10:00:07;94643.34;;;22.72;65.60
36932;BME280;22847;42.654;23.370;2022-07-09T10:02:34;94637.63;;;22.68;65.28
36932;BME280;22847;42.654;23.370;2022-07-09T10:05:01;94644.94;;;22.54;66.32
36932;BME280;22847;42.654;23.370;2022-07-09T10:07:27;94644.47;;;22.57;65.95
36932;BME280;22847;42.654;23.370;2022-07-09T10:09:57;94642.09;;;22.00;65.91
36932;BME280;22847;42.654;23.370;2022-07-09T10:12:32;94442.88;;;21.07;64.84
36932;BME280;22847;42.654;23.370;2022-07-09T10:14:57;94641.31;;;22.24;65.25
36932;BME280;22847;42.654;23.370;2022-07-09T10:17:24;94644.84;;;22.11;65.94
36932;BME280;22847;42.654;23.370;2022-07-09T10:19:55;94682.53;;;22.02;66.48
36932;BME280;22847;42.654;23.370;2022-07-09T10:22:36;94466.75;;;21.01;66.81
36932;BME280;22847;42.654;23.370;2022-07-09T10:25:02;94658.53;;;22.15;66.72
36932;BME280;22847;42.654;23.370;2022-07-09T10:27:28;94473.03;;;21.06;66.41
36932;BME280;22847;42.654;23.370;2022-07-09T10:29:58;94654.25;;;22.14;66.18
36932;BME280;22847;42.654;23.370;2022-07-09T10:32:31;94644.53;;;22.01;67.23
36932;BME280;22847;42.654;23.370;2022-07-09T10:35:05;94676.19;;;22.03;66.17
36932;BME280;22847;42.654;23.370;2022-07-09T10:37:44;94546.28;;;21.07;65.38
36932;BME280;22847;42.654;23.370;2022-07-09T10:40:14;94648.13;;;21.75;66.20
36932;BME280;22847;42.654;23.370;2022-07-09T10:42:41;94649.56;;;21.78;66.43
36932;BME280;22847;42.654;23.370;2022-07-09T10:45:37;94515.06;;;20.58;66.83
36932;BME280;22847;42.654;23.370;2022-07-09T10:48:04;94502.22;;;20.62;65.98
36932;BME280;22847;42.654;23.370;2022-07-09T10:50:33;94542.69;;;20.82;67.44
36932;BME280;22847;42.654;23.370;2022-07-09T10:53:01;94589.22;;;21.29;66.78
36932;BME280;22847;42.654;23.370;2022-07-09T10:55:28;94645.31;;;21.26;66.03
36932;BME280;22847;42.654;23.370;2022-07-09T10:57:54;94442.81;;;20.38;66.61
36932;BME280;22847;42.654;23.370;2022-07-09T11:00:26;94454.63;;;20.22;67.65
36932;BME280;22847;42.654;23.370;2022-07-09T11:02:58;94654.63;;;21.86;67.96
36932;BME280;22847;42.654;23.370;2022-07-09T11:05:28;94360.06;;;19.98;69.11
36932;BME280;22847;42.654;23.370;2022-07-09T11:08:12;94691.47;;;21.69;69.70
36932;BME280;22847;42.654;23.370;2022-07-09T11:10:39;94600.13;;;21.01;71.35
36932;BME280;22847;42.654;23.370;2022-07-09T11:13:06;94682.84;;;21.36;71.21
36932;BME280;22847;42.654;23.370;2022-07-09T11:15:34;94617.88;;;20.94;71.83
36932;BME280;22847;42.654;23.370;2022-07-09T11:18:01;94522.47;;;20.43;72.23
36932;BME280;22847;42.654;23.370;2022-07-09T11:20:29;94685.16;;;21.64;70.12
36932;BME280;22847;42.654;23.370;2022-07-09T11:22:55;94674.97;;;21.61;70.71
36932;BME280;22847;42.654;23.370;2022-07-09T11:25:26;94619.16;;;21.43;70.49
36932;BME280;22847;42.654;23.370;2022-07-09T11:27:56;94676.19;;;21.58;71.04
36932;BME280;22847;42.654;23.370;2022-07-09T11:30:24;94608.66;;;21.10;71.54
36932;BME280;22847;42.654;23.370;2022-07-09T11:32:50;94640.31;;;21.49;70.21
36932;BME280;22847;42.654;23.370;2022-07-09T11:35:33;94499.09;;;20.78;69.29
36932;BME280;22847;42.654;23.370;2022-07-09T11:38:04;94615.56;;;21.62;69.47
36932;BME280;22847;42.654;23.370;2022-07-09T11:40:32;94471.50;;;20.92;67.60
36932;BME280;22847;42.654;23.370;2022-07-09T11:42:57;94600.41;;;21.69;67.76
36932;BME280;22847;42.654;23.370;2022-07-09T11:45:29;94662.75;;;21.91;67.38
36932;BME280;22847;42.654;23.370;2022-07-09T11:48:10;94654.25;;;22.14;66.82
36932;BME280;22847;42.654;23.370;2022-07-09T11:50:43;94543.19;;;21.10;67.35
36932;BME280;22847;42.654;23.370;2022-07-09T11:53:22;94621.81;;;21.43;67.59
36932;BME280;22847;42.654;23.370;2022-07-09T11:56:03;94661.19;;;21.84;67.02
36932;BME280;22847;42.654;23.370;2022-07-09T11:58:29;94651.84;;;21.74;67.49
36932;BME280;22847;42.654;23.370;2022-07-09T12:00:55;94464.81;;;20.32;67.89
36932;BME280;22847;42.654;23.370;2022-07-09T12:03:25;94649.50;;;20.96;69.58
36932;BME280;22847;42.654;23.370;2022-07-09T12:05:52;94492.16;;;19.99;69.11
36932;BME280;22847;42.654;23.370;2022-07-09T12:08:26;94463.25;;;20.04;68.01
36932;BME280;22847;42.654;23.370;2022-07-09T12:10:52;94653.22;;;21.39;69.44
36932;BME280;22847;42.654;23.370;2022-07-09T12:13:18;94650.81;;;21.38;69.09
36932;BME280;22847;42.654;23.370;2022-07-09T12:15:44;94682.31;;;21.59;68.26
36932;BME280;22847;42.654;23.370;2022-07-09T12:18:09;94647.84;;;21.59;68.13
36932;BME280;22847;42.654;23.370;2022-07-09T12:20:35;94362.00;;;19.51;68.11
36932;BME280;22847;42.654;23.370;2022-07-09T12:23:00;94490.06;;;20.41;67.81
36932;BME280;22847;42.654;23.370;2022-07-09T12:25:26;94637.31;;;21.39;67.46
36932;BME280;22847;42.654;23.370;2022-07-09T12:27:51;94627.19;;;21.23;68.66
36932;BME280;22847;42.654;23.370;2022-07-09T12:30:17;94424.47;;;20.36;68.01
36932;BME280;22847;42.654;23.370;2022-07-09T12:32:43;94598.31;;;21.46;67.66
36932;BME280;22847;42.654;23.370;2022-07-09T12:35:10;94617.25;;;21.56;68.15
36932;BME280;22847;42.654;23.370;2022-07-09T12:37:39;94645.09;;;21.72;68.53
36932;BME280;22847;42.654;23.370;2022-07-09T12:40:06;94617.16;;;21.69;67.20
36932;BME280;22847;42.654;23.370;2022-07-09T12:42:32;94605.75;;;21.62;66.52
36932;BME280;22847;42.654;23.370;2022-07-09T12:44:58;94635.09;;;21.74;68.23
36932;BME280;22847;42.654;23.370;2022-07-09T12:47:24;94644.66;;;21.75;67.51